createdAt,value
2024-03-13T00:00:28.157Z,22.80
2024-03-13T00:02:55.202Z,23.38
2024-03-13T00:05:24.176Z,21.77
2024-03-13T00:07:52.032Z,20.40
2024-03-13T00:10:19.290Z,22.00
2024-03-13T00:12:45.838Z,22.90
2024-03-13T00:15:12.678Z,21.90
2024-03-13T00:17:39.449Z,20.62
2024-03-13T00:20:07.145Z,20.60
2024-03-13T00:22:38.312Z,19.15
2024-03-13T00:25:11.709Z,20.62
2024-03-13T00:27:38.911Z,19.15
2024-03-13T00:30:07.095Z,20.17
2024-03-13T00:32:34.028Z,21.75
2024-03-13T00:35:02.336Z,20.65
2024-03-13T00:37:28.976Z,20.40
2024-03-13T00:39:55.508Z,20.67
2024-03-13T00:42:22.210Z,20.62
2024-03-13T00:44:48.972Z,20.35
2024-03-13T00:47:19.325Z,20.70
2024-03-13T00:49:45.763Z,19.87
2024-03-13T00:52:12.328Z,20.95
2024-03-13T00:54:47.665Z,19.75
2024-03-13T00:57:18.556Z,19.08
2024-03-13T00:59:46.028Z,19.33
2024-03-13T01:02:12.768Z,20.67
2024-03-13T01:04:39.313Z,20.40
2024-03-13T01:07:09.640Z,21.30
2024-03-13T01:09:36.551Z,20.35
2024-03-13T01:12:03.418Z,20.70
2024-03-13T01:14:30.081Z,22.92
2024-03-13T01:17:06.201Z,21.05
2024-03-13T01:19:35.893Z,20.85
2024-03-13T01:22:09.092Z,20.40
2024-03-13T01:27:02.329Z,21.65
2024-03-13T01:29:28.890Z,20.33
2024-03-13T01:31:58.617Z,21.65
2024-03-13T01:34:26.163Z,20.80
2024-03-13T01:37:11.831Z,19.23
2024-03-13T01:39:38.689Z,19.55
2024-03-13T01:42:23.619Z,19.02
2024-03-13T01:45:26.074Z,19.70
2024-03-13T01:48:15.818Z,19.42
2024-03-13T01:54:10.035Z,20.67
2024-03-13T01:56:38.417Z,20.10
2024-03-13T01:59:10.934Z,19.55
2024-03-13T02:01:55.929Z,20.98
2024-03-13T02:04:22.836Z,19.00
2024-03-13T02:06:54.978Z,21.05
2024-03-13T02:09:24.289Z,19.17
2024-03-13T02:11:50.801Z,19.67
2024-03-13T02:14:17.318Z,19.48
2024-03-13T02:16:44.069Z,20.17
2024-03-13T02:19:11.748Z,21.30
2024-03-13T02:21:38.361Z,19.98
2024-03-13T02:24:06.129Z,19.65
2024-03-13T02:26:32.614Z,20.33
2024-03-13T02:28:59.824Z,20.85
2024-03-13T02:36:56.825Z,21.80
2024-03-13T02:39:25.092Z,19.52
2024-03-13T02:58:38.195Z,22.10
2024-03-13T03:01:04.805Z,18.80
2024-03-13T03:03:31.434Z,20.85
2024-03-13T03:05:58.484Z,19.35
2024-03-13T03:16:50.749Z,20.23
2024-03-13T03:19:24.451Z,20.33
2024-03-13T03:21:50.998Z,22.23
2024-03-13T03:24:18.215Z,21.20
2024-03-13T03:26:44.717Z,21.77
2024-03-13T03:29:11.182Z,20.73
2024-03-13T03:31:37.665Z,22.58
2024-03-13T03:34:04.128Z,21.85
2024-03-13T03:36:31.743Z,19.00
2024-03-13T03:38:59.751Z,21.80
2024-03-13T03:41:27.512Z,21.45
2024-03-13T03:43:53.971Z,24.35
2024-03-13T03:46:20.506Z,22.83
2024-03-13T03:48:47.181Z,20.60
2024-03-13T03:51:17.992Z,21.85
2024-03-13T03:53:45.851Z,21.37
2024-03-13T03:56:15.180Z,21.60
2024-03-13T03:58:43.997Z,21.80
2024-03-13T04:01:10.754Z,21.40
2024-03-13T04:03:37.818Z,20.88
2024-03-13T04:06:04.895Z,20.95
2024-03-13T04:08:31.645Z,23.27
2024-03-13T04:10:58.202Z,23.00
2024-03-13T04:13:31.980Z,21.35
2024-03-13T04:15:59.369Z,20.75
2024-03-13T04:18:25.867Z,21.02
2024-03-13T04:20:52.345Z,22.40
2024-03-13T04:23:18.773Z,19.98
2024-03-13T04:25:46.051Z,19.50
2024-03-13T04:28:13.041Z,20.20
2024-03-13T04:30:41.892Z,22.05
2024-03-13T04:33:08.765Z,22.02
2024-03-13T04:35:35.385Z,24.42
2024-03-13T04:38:02.207Z,25.70
2024-03-13T04:40:28.722Z,23.08
2024-03-13T04:42:55.328Z,21.27
2024-03-13T04:45:21.828Z,20.98
2024-03-13T04:47:48.347Z,21.12
2024-03-13T04:50:14.937Z,21.27
2024-03-13T04:52:41.512Z,20.55
2024-03-13T04:55:08.349Z,22.95
2024-03-13T04:57:34.956Z,20.65
2024-03-13T05:00:01.444Z,22.83
2024-03-13T05:02:28.006Z,20.83
2024-03-13T05:04:55.088Z,20.50
2024-03-13T05:07:23.396Z,20.83
2024-03-13T05:09:51.065Z,19.70
2024-03-13T05:12:17.572Z,21.58
2024-03-13T05:14:44.059Z,21.30
2024-03-13T05:17:16.758Z,19.52
2024-03-13T05:19:44.312Z,19.55
2024-03-13T05:22:10.838Z,19.67
2024-03-13T05:24:37.667Z,21.75
2024-03-13T05:27:06.364Z,22.15
2024-03-13T05:32:08.787Z,20.77
2024-03-13T05:34:35.360Z,20.10
2024-03-13T05:37:01.953Z,20.05
2024-03-13T05:39:28.396Z,20.90
2024-03-13T05:41:54.888Z,20.48
2024-03-13T05:44:22.723Z,22.27
2024-03-13T05:46:49.927Z,21.40
2024-03-13T05:49:18.042Z,22.37
2024-03-13T05:51:44.801Z,23.50
2024-03-13T05:54:11.336Z,20.85
2024-03-13T05:56:38.581Z,20.95
2024-03-13T05:59:05.127Z,20.90
2024-03-13T06:01:31.852Z,22.33
2024-03-13T06:04:00.102Z,21.92
2024-03-13T06:06:27.423Z,20.08
2024-03-13T06:08:54.601Z,21.77
2024-03-13T06:11:21.145Z,20.02
2024-03-13T06:13:47.673Z,21.80
2024-03-13T06:16:16.376Z,23.05
2024-03-13T06:18:44.248Z,22.15
2024-03-13T06:21:11.903Z,20.65
2024-03-13T06:23:38.775Z,19.70
2024-03-13T06:26:05.386Z,19.08
2024-03-13T06:28:50.372Z,20.40
2024-03-13T06:31:17.284Z,21.52
2024-03-13T06:33:43.898Z,19.60
2024-03-13T06:36:10.480Z,21.23
2024-03-13T06:38:37.219Z,20.85
2024-03-13T06:41:03.773Z,19.48
2024-03-13T06:43:30.504Z,20.05
2024-03-13T06:45:57.771Z,19.23
2024-03-13T06:48:27.568Z,20.37
2024-03-13T06:50:54.026Z,19.77
2024-03-13T06:53:20.499Z,19.40
2024-03-13T06:58:22.254Z,19.35
2024-03-13T07:00:48.855Z,19.60
2024-03-13T07:03:15.404Z,19.52
2024-03-13T07:05:42.140Z,18.83
2024-03-13T07:08:08.644Z,19.67
2024-03-13T07:10:35.173Z,17.15
2024-03-13T07:13:02.314Z,18.05
2024-03-13T07:15:28.849Z,19.02
2024-03-13T07:17:55.439Z,19.35
2024-03-13T07:20:21.974Z,20.52
2024-03-13T07:22:48.465Z,19.33
2024-03-13T07:25:15.104Z,17.92
2024-03-13T07:27:41.828Z,20.08
2024-03-13T07:30:08.784Z,18.20
2024-03-13T07:32:35.972Z,18.30
2024-03-13T07:35:02.985Z,20.20
2024-03-13T07:37:29.472Z,19.20
2024-03-13T07:39:56.672Z,18.45
2024-03-13T07:42:23.223Z,19.37
2024-03-13T07:44:51.774Z,20.40
2024-03-13T07:47:18.228Z,19.25
2024-03-13T07:49:46.822Z,17.35
2024-03-13T07:52:13.961Z,17.73
2024-03-13T07:54:40.872Z,16.08
2024-03-13T07:57:09.695Z,17.67
2024-03-13T07:59:36.356Z,16.90
2024-03-13T08:02:03.937Z,16.42
2024-03-13T08:04:30.805Z,17.15
2024-03-13T09:06:18.188Z,14.25
2024-03-13T09:11:14.093Z,17.33
2024-03-13T09:13:41.519Z,14.00
2024-03-13T09:16:08.137Z,13.88
2024-03-13T09:18:42.958Z,14.23
2024-03-13T09:21:10.523Z,13.55
2024-03-13T09:23:37.409Z,14.50
2024-03-13T09:26:04.020Z,12.80
2024-03-13T09:28:30.561Z,14.07
2024-03-13T09:30:57.046Z,15.48
2024-03-13T09:33:23.904Z,14.60
2024-03-13T09:35:50.494Z,12.35
2024-03-13T09:38:18.717Z,13.07
2024-03-13T09:40:46.928Z,13.68
2024-03-13T09:43:19.055Z,13.20
2024-03-13T09:45:51.277Z,12.48
2024-03-13T09:48:18.752Z,12.27
2024-03-13T09:50:53.438Z,12.18
2024-03-13T09:53:24.864Z,12.25
2024-03-13T09:55:52.034Z,13.30
2024-03-13T09:58:19.717Z,14.10
2024-03-13T10:00:46.316Z,13.23
2024-03-13T10:03:25.090Z,12.82
2024-03-13T10:05:55.869Z,13.23
2024-03-13T10:08:23.550Z,12.55
2024-03-13T10:10:50.808Z,13.02
2024-03-13T10:13:17.902Z,14.82
2024-03-13T10:15:47.131Z,14.02
2024-03-13T10:18:19.599Z,15.23
2024-03-13T10:21:03.684Z,13.77
2024-03-13T10:23:32.738Z,14.27
2024-03-13T10:26:01.051Z,12.07
2024-03-13T10:28:28.008Z,11.43
2024-03-13T10:30:58.963Z,14.57
2024-03-13T10:33:25.638Z,14.18
2024-03-13T10:35:52.805Z,14.13
2024-03-13T10:38:20.352Z,13.27
2024-03-13T10:40:47.321Z,11.80
2024-03-13T10:43:14.832Z,13.73
2024-03-13T10:45:49.138Z,12.18
2024-03-13T10:48:18.216Z,11.98
2024-03-13T10:50:47.731Z,9.85
2024-03-13T10:53:14.216Z,12.18
2024-03-13T10:55:40.723Z,11.77
2024-03-13T10:58:21.278Z,12.02
2024-03-13T11:00:48.710Z,10.82
2024-03-13T11:03:15.438Z,11.55
2024-03-13T11:05:42.458Z,12.15
2024-03-13T11:08:10.052Z,12.40
2024-03-13T11:10:37.080Z,14.20
2024-03-13T11:13:07.460Z,10.95
2024-03-13T11:15:46.361Z,12.37
2024-03-13T11:18:14.050Z,13.05
2024-03-13T11:21:02.359Z,11.50
2024-03-13T11:23:39.436Z,12.27
2024-03-13T11:26:10.404Z,13.48
2024-03-13T11:28:38.617Z,12.02
2024-03-13T11:31:07.903Z,10.65
2024-03-13T11:33:34.542Z,13.38
2024-03-13T11:36:02.412Z,10.57
2024-03-13T11:38:30.863Z,11.05
2024-03-13T11:40:57.903Z,12.00
2024-03-13T11:43:49.106Z,10.77
2024-03-13T11:46:50.962Z,11.07
2024-03-13T11:49:18.743Z,10.10
2024-03-13T11:52:11.025Z,9.90
2024-03-13T11:54:44.692Z,9.25
2024-03-13T11:57:14.134Z,9.82
2024-03-13T11:59:50.839Z,10.18
2024-03-13T12:02:32.653Z,12.32
2024-03-13T12:05:04.923Z,8.93
2024-03-13T12:07:46.591Z,10.95
2024-03-13T12:10:19.371Z,11.77
2024-03-13T12:12:46.802Z,10.50
2024-03-13T12:15:20.249Z,12.57
2024-03-13T12:17:50.932Z,12.95
2024-03-13T12:20:23.676Z,14.65
2024-03-13T12:22:51.336Z,12.48
2024-03-13T12:25:21.623Z,13.25
2024-03-13T12:27:51.168Z,13.07
2024-03-13T12:30:22.010Z,12.43
2024-03-13T12:32:53.713Z,13.43
2024-03-13T12:35:20.462Z,13.88
2024-03-13T12:37:58.925Z,11.90
2024-03-13T12:40:26.408Z,11.82
2024-03-13T12:42:53.022Z,10.82
2024-03-13T12:45:19.620Z,13.32
2024-03-13T12:47:46.698Z,14.23
2024-03-13T12:50:15.758Z,15.05
2024-03-13T12:52:51.167Z,14.50
2024-03-13T12:55:18.203Z,13.45
2024-03-13T12:57:44.902Z,13.32
2024-03-13T13:00:16.672Z,13.95
2024-03-13T13:02:45.520Z,15.60
2024-03-13T13:05:16.154Z,15.18
2024-03-13T13:07:50.722Z,14.45
2024-03-13T13:10:17.313Z,15.05
2024-03-13T13:12:44.871Z,13.82
2024-03-13T13:15:14.059Z,14.90
2024-03-13T13:17:44.541Z,13.38
2024-03-13T13:20:14.445Z,11.88
2024-03-13T13:22:45.314Z,15.85
2024-03-13T13:25:12.716Z,14.23
2024-03-13T13:30:51.294Z,14.77
2024-03-13T13:33:18.642Z,16.33
2024-03-13T13:35:45.289Z,15.50
2024-03-13T13:38:13.162Z,17.67
2024-03-13T13:40:40.026Z,18.42
2024-03-13T13:43:10.300Z,17.48
2024-03-13T13:45:37.023Z,17.02
2024-03-13T13:48:07.933Z,15.02
2024-03-13T13:50:34.464Z,18.08
2024-03-13T13:53:00.952Z,15.80
2024-03-13T13:55:27.518Z,18.45
2024-03-13T13:57:54.645Z,17.08
2024-03-13T14:00:25.256Z,18.02
2024-03-13T14:02:54.156Z,16.77
2024-03-13T14:05:21.727Z,17.65
2024-03-13T14:07:49.805Z,17.77
2024-03-13T14:10:16.313Z,13.38
2024-03-13T14:12:44.357Z,13.62
2024-03-13T14:15:14.177Z,15.18
2024-03-13T14:17:40.832Z,16.05
2024-03-13T14:20:13.469Z,16.40
2024-03-13T14:22:41.516Z,17.50
2024-03-13T14:25:08.189Z,16.70
2024-03-13T14:27:34.776Z,17.60
2024-03-13T14:30:01.370Z,15.52
2024-03-13T14:32:28.787Z,15.65
2024-03-13T14:34:59.332Z,15.38
2024-03-13T14:37:26.556Z,16.33
2024-03-13T14:39:57.776Z,15.55
2024-03-13T14:42:33.986Z,16.90
2024-03-13T14:45:02.167Z,19.42
2024-03-13T14:47:29.026Z,19.58
2024-03-13T14:49:55.608Z,27.77
2024-03-13T14:52:22.109Z,15.90
2024-03-13T14:54:48.818Z,18.73
2024-03-13T14:57:16.279Z,17.23
2024-03-13T14:59:42.998Z,16.25
2024-03-13T15:02:13.945Z,17.08
2024-03-13T15:04:40.521Z,17.67
2024-03-13T15:07:11.121Z,16.55
2024-03-13T15:09:41.835Z,18.98
2024-03-13T15:12:15.005Z,17.30
2024-03-13T15:14:43.154Z,19.75
2024-03-13T15:17:14.442Z,19.20
2024-03-13T15:19:43.487Z,19.10
2024-03-13T15:22:10.452Z,17.58
2024-03-13T15:24:38.323Z,18.50
2024-03-13T15:27:05.109Z,18.65
2024-03-13T15:29:34.019Z,19.20
2024-03-13T15:32:00.648Z,17.33
2024-03-13T15:34:27.340Z,47.45
2024-03-13T15:36:53.895Z,24.70
2024-03-13T15:39:20.874Z,81.57
2024-03-13T15:41:47.729Z,53.70
2024-03-13T15:44:15.623Z,73.30
2024-03-13T15:46:45.256Z,84.50
2024-03-13T15:49:14.863Z,99.00
2024-03-13T15:51:44.897Z,34.25
2024-03-13T15:54:12.530Z,21.23
2024-03-13T15:56:39.274Z,26.67
2024-03-13T15:59:06.407Z,28.33
2024-03-13T16:01:34.283Z,20.08
2024-03-13T16:04:02.234Z,18.37
2024-03-13T16:06:29.863Z,17.77
2024-03-13T16:09:12.272Z,21.62
2024-03-13T16:11:39.639Z,19.90
2024-03-13T16:14:09.026Z,18.98
2024-03-13T16:16:35.567Z,19.62
2024-03-13T16:19:03.550Z,20.77
2024-03-13T16:21:30.258Z,20.33
2024-03-13T16:23:58.784Z,17.80
2024-03-13T16:26:25.468Z,18.73
2024-03-13T16:28:54.060Z,20.05
2024-03-13T16:31:20.830Z,19.98
2024-03-13T16:33:47.546Z,18.27
2024-03-13T16:36:14.245Z,19.60
2024-03-13T16:38:40.786Z,18.42
2024-03-13T16:41:08.229Z,19.58
2024-03-13T16:43:36.202Z,19.87
2024-03-13T16:46:02.874Z,20.05
2024-03-13T16:48:30.902Z,18.95
2024-03-13T16:51:00.035Z,20.23
2024-03-13T16:53:26.891Z,16.92
2024-03-13T16:55:54.066Z,20.02
2024-03-13T16:58:20.664Z,20.00
2024-03-13T17:00:47.117Z,18.90
2024-03-13T17:03:13.658Z,18.58
2024-03-13T17:05:40.963Z,22.73
2024-03-13T17:08:08.922Z,17.10
2024-03-13T17:10:35.623Z,20.45
2024-03-13T17:13:04.330Z,17.90
2024-03-13T17:15:31.336Z,21.00
2024-03-13T17:17:58.808Z,21.05
2024-03-13T17:20:26.144Z,21.67
2024-03-13T17:22:52.884Z,20.58
2024-03-13T17:25:19.913Z,17.98
2024-03-13T17:27:47.852Z,19.17
2024-03-13T17:30:14.738Z,19.83
2024-03-13T17:32:42.119Z,19.45
2024-03-13T17:35:10.444Z,20.55
2024-03-13T17:37:37.130Z,20.25
2024-03-13T17:40:08.427Z,20.45
2024-03-13T17:42:35.163Z,19.45
2024-03-13T17:45:01.917Z,18.35
2024-03-13T17:47:28.637Z,20.65
2024-03-13T17:49:55.231Z,18.48
2024-03-13T17:52:21.935Z,19.73
2024-03-13T17:54:48.460Z,19.65
2024-03-13T17:57:15.546Z,17.52
2024-03-13T17:59:43.324Z,17.50
2024-03-13T18:02:13.106Z,18.25
2024-03-13T18:04:42.687Z,20.17
2024-03-13T18:07:12.201Z,19.20
2024-03-13T18:09:41.353Z,19.25
2024-03-13T18:12:08.163Z,19.17
2024-03-13T18:14:34.669Z,20.17
2024-03-13T18:17:01.187Z,17.87
2024-03-13T18:19:27.805Z,16.35
2024-03-13T18:21:55.044Z,19.70
2024-03-13T18:24:21.620Z,19.15
2024-03-13T18:26:48.205Z,18.77
2024-03-13T18:29:14.983Z,20.17
2024-03-13T18:31:41.543Z,19.37
2024-03-13T18:34:08.725Z,19.65
2024-03-13T18:36:35.634Z,18.65
2024-03-13T18:39:02.152Z,21.05
2024-03-13T18:41:29.279Z,18.62
2024-03-13T18:43:56.395Z,19.98
2024-03-13T18:46:23.348Z,21.37
2024-03-13T18:48:50.873Z,19.92
2024-03-13T18:51:17.684Z,21.87
2024-03-13T18:53:47.822Z,18.85
2024-03-13T18:56:14.612Z,18.45
2024-03-13T18:58:42.181Z,21.52
2024-03-13T19:01:08.941Z,21.80
2024-03-13T19:03:35.600Z,19.48
2024-03-13T19:06:08.448Z,20.52
2024-03-13T19:11:02.213Z,21.33
2024-03-13T19:13:28.887Z,21.40
2024-03-13T19:15:56.872Z,20.80
2024-03-13T19:18:23.493Z,22.23
2024-03-13T19:20:50.158Z,19.12
2024-03-13T19:23:16.745Z,23.83
2024-03-13T19:25:43.302Z,22.65
2024-03-13T19:28:09.929Z,26.00
2024-03-13T19:30:37.392Z,23.48
2024-03-13T19:33:05.626Z,20.42
2024-03-13T19:35:34.329Z,21.33
2024-03-13T19:38:00.889Z,19.35
2024-03-13T19:40:27.349Z,19.95
2024-03-13T19:42:55.402Z,18.62
2024-03-13T19:45:21.961Z,21.10
2024-03-13T19:47:48.550Z,19.67
2024-03-13T19:50:15.090Z,18.50
2024-03-13T19:52:44.089Z,19.05
2024-03-13T19:55:13.628Z,20.73
2024-03-13T19:57:41.266Z,22.27
2024-03-13T20:00:14.246Z,18.67
2024-03-13T20:02:42.043Z,19.25
2024-03-13T20:05:08.939Z,19.77
2024-03-13T20:07:36.077Z,18.48
2024-03-13T20:10:02.667Z,19.70
2024-03-13T20:12:29.283Z,17.98
2024-03-13T20:14:57.486Z,20.17
2024-03-13T20:17:24.143Z,19.23
2024-03-13T20:19:50.674Z,19.05
2024-03-13T20:22:18.744Z,17.37
2024-03-13T20:24:48.584Z,18.58
2024-03-13T20:27:16.164Z,18.12
2024-03-13T20:29:45.464Z,18.60
2024-03-13T20:32:12.031Z,21.67
2024-03-13T20:34:38.548Z,22.08
2024-03-13T20:37:05.368Z,19.10
2024-03-13T20:39:32.404Z,19.83
2024-03-13T20:41:59.110Z,18.52
2024-03-13T20:44:26.594Z,18.65
2024-03-13T20:46:53.212Z,21.73
2024-03-13T20:49:19.775Z,19.30
2024-03-13T20:51:47.460Z,18.30
2024-03-13T20:54:14.122Z,18.75
2024-03-13T20:56:41.475Z,19.87
2024-03-13T20:59:10.369Z,20.40
2024-03-13T21:01:36.929Z,20.90
2024-03-13T21:04:03.529Z,19.25
2024-03-13T21:06:30.040Z,20.52
2024-03-13T21:08:56.591Z,20.48
2024-03-13T21:11:23.459Z,19.37
2024-03-13T21:13:50.565Z,17.50
2024-03-13T21:16:20.782Z,18.52
2024-03-13T21:18:47.601Z,17.37
2024-03-13T21:21:14.600Z,20.77
2024-03-13T21:23:41.224Z,17.27
2024-03-13T21:26:10.678Z,21.75
2024-03-13T21:28:37.512Z,20.30
2024-03-13T21:31:07.862Z,21.35
2024-03-13T21:33:36.426Z,18.85
2024-03-13T21:36:04.387Z,20.77
2024-03-13T21:38:30.895Z,19.92
2024-03-13T21:40:59.995Z,18.85
2024-03-13T21:43:31.355Z,17.58
2024-03-13T21:45:59.163Z,19.90
2024-03-13T21:48:25.762Z,19.10
2024-03-13T21:50:52.572Z,23.27
2024-03-13T21:53:19.163Z,22.25
2024-03-13T21:55:47.265Z,24.87
2024-03-13T21:58:14.689Z,28.65
2024-03-13T22:00:41.709Z,24.75
2024-03-13T22:03:08.245Z,27.00
2024-03-13T22:05:34.691Z,29.20
2024-03-13T22:08:01.222Z,24.20
2024-03-13T22:10:27.759Z,20.75
2024-03-13T22:12:55.955Z,23.15
2024-03-13T22:15:22.750Z,22.20
2024-03-13T22:17:49.424Z,21.15
2024-03-13T22:20:16.677Z,23.48
2024-03-13T22:22:43.679Z,20.58
2024-03-13T22:25:11.205Z,20.75
2024-03-13T22:27:37.774Z,19.60
2024-03-13T22:30:04.760Z,21.33
2024-03-13T22:32:33.039Z,25.35
2024-03-13T22:34:59.810Z,19.87
2024-03-13T22:37:29.435Z,20.90
2024-03-13T22:39:55.953Z,20.90
2024-03-13T22:42:23.530Z,19.87
2024-03-13T22:44:50.380Z,19.62
2024-03-13T22:47:16.955Z,20.83
2024-03-13T22:49:46.352Z,19.60
2024-03-13T22:52:12.888Z,22.60
2024-03-13T22:54:39.802Z,20.98
2024-03-13T22:57:06.968Z,21.62
2024-03-13T22:59:33.568Z,21.00
2024-03-13T23:02:01.413Z,21.87
2024-03-13T23:04:27.961Z,21.73
2024-03-13T23:06:54.656Z,21.23
2024-03-13T23:09:21.223Z,19.70
2024-03-13T23:11:47.845Z,23.70
2024-03-13T23:14:15.181Z,23.35
2024-03-13T23:16:41.826Z,22.98
2024-03-13T23:19:08.320Z,21.15
2024-03-13T23:21:34.907Z,22.52
2024-03-13T23:24:01.442Z,21.48
2024-03-13T23:26:27.989Z,23.58
2024-03-13T23:28:54.892Z,20.58
2024-03-13T23:31:21.704Z,21.08
2024-03-13T23:33:48.384Z,21.02
2024-03-13T23:36:15.116Z,24.10
2024-03-13T23:38:42.398Z,21.30
2024-03-13T23:41:14.231Z,21.62
2024-03-13T23:43:41.231Z,22.37
2024-03-13T23:46:16.198Z,21.92
2024-03-13T23:48:42.728Z,21.30
2024-03-13T23:51:11.750Z,18.67
2024-03-13T23:53:38.361Z,19.80
2024-03-13T23:56:05.679Z,17.80
2024-03-13T23:58:37.248Z,20.83
